Time;durP1;ratioP1;P1;durP2;ratioP2;P2;SDS_P1;SDS_P2;PMS_P1;PMS_P2;Temp;Humidity;BMP_temperature;BMP_pressure;BME280_temperature;BME280_humidity;BME280_pressure;Samples;Min_cycle;Max_cycle;Signal;HPM_P1;HPM_P2
2023/05/08 00:00:31;;;;;;;0.10;0.10;;;;;;;;;;5047780;28;20061;-78
2023/05/08 00:02:58;;;;;;;0.10;0.10;;;;;;;;;;5046099;28;20057;-78
2023/05/08 00:05:24;;;;;;;0.10;0.10;;;;;;;;;;5046309;28;20065;-79
2023/05/08 00:07:52;;;;;;;0.10;0.10;;;;;;;;;;5049163;28;20054;-78
2023/05/08 00:10:18;;;;;;;0.10;0.10;;;;;;;;;;5032173;28;20056;-78
2023/05/08 00:12:45;;;;;;;0.10;0.10;;;;;;;;;;5049337;28;20061;-78
2023/05/08 00:15:11;;;;;;;0.10;0.10;;;;;;;;;;5044812;28;20815;-78
2023/05/08 00:17:37;;;;;;;0.10;0.10;;;;;;;;;;5027650;28;20057;-78
2023/05/08 00:20:04;;;;;;;0.10;0.10;;;;;;;;;;5046859;28;20061;-78
2023/05/08 00:22:31;;;;;;;0.10;0.10;;;;;;;;;;5046294;28;20052;-78
2023/05/08 00:24:57;;;;;;;0.10;0.10;;;;;;;;;;5045582;28;20064;-78
2023/05/08 00:27:23;;;;;;;0.20;0.20;;;;;;;;;;5046052;28;20057;-78
2023/05/08 00:29:50;;;;;;;0.10;0.10;;;;;;;;;;5045774;28;20589;-79
2023/05/08 00:32:16;;;;;;;0.10;0.10;;;;;;;;;;5026945;28;20058;-78
2023/05/08 00:34:42;;;;;;;0.10;0.10;;;;;;;;;;5047561;28;20076;-78
2023/05/08 00:37:09;;;;;;;0.10;0.10;;;;;;;;;;5049092;28;20061;-79
2023/05/08 00:39:35;;;;;;;0.10;0.10;;;;;;;;;;5050482;28;20060;-79
2023/05/08 00:42:02;;;;;;;0.10;0.10;;;;;;;;;;5050635;28;20135;-77
2023/05/08 00:44:28;;;;;;;0.20;0.20;;;;;;;;;;5051198;28;20058;-78
2023/05/08 00:46:55;;;;;;;0.10;0.10;;;;;;;;;;5052035;28;20058;-78
2023/05/08 00:49:22;;;;;;;0.10;0.10;;;;;;;;;;5051900;28;20053;-78
2023/05/08 00:51:50;;;;;;;0.10;0.10;;;;;;;;;;5034820;28;20053;-78
2023/05/08 00:54:16;;;;;;;0.10;0.10;;;;;;;;;;5037925;28;20116;-78
2023/05/08 00:56:44;;;;;;;0.10;0.10;;;;;;;;;;5048074;28;20148;-78
2023/05/08 00:59:12;;;;;;;0.10;0.10;;;;;;;;;;5050358;28;20533;-79
2023/05/08 01:01:39;;;;;;;0.10;0.10;;;;;;;;;;5049092;28;20063;-79
2023/05/08 01:04:06;;;;;;;0.10;0.10;;;;;;;;;;5046299;28;20065;-78
2023/05/08 01:06:33;;;;;;;0.28;0.28;;;;;;;;;;5036283;28;20638;-78
2023/05/08 01:08:59;;;;;;;0.10;0.10;;;;;;;;;;5055464;28;20056;-78
2023/05/08 01:11:34;;;;;;;0.10;0.10;;;;;;;;;;5043519;28;20053;-79
2023/05/08 01:14:15;;;;;;;0.10;0.10;;;;;;;;;;5048942;28;20054;-78
2023/05/08 01:16:57;;;;;;;0.10;0.10;;;;;;;;;;5049317;28;20068;-78
2023/05/08 01:19:36;;;;;;;0.10;0.10;;;;;;;;;;5048545;28;20058;-78
2023/05/08 01:22:10;;;;;;;0.10;0.10;;;;;;;;;;5031432;28;20050;-78
2023/05/08 01:24:36;;;;;;;0.10;0.10;;;;;;;;;;5048105;28;20168;-79
2023/05/08 01:27:18;;;;;;;0.10;0.10;;;;;;;;;;5045653;28;20081;-79
2023/05/08 01:30:02;;;;;;;0.10;0.10;;;;;;;;;;5046277;28;20595;-79
2023/05/08 01:32:32;;;;;;;0.10;0.10;;;;;;;;;;5010652;28;20140;-78
2023/05/08 01:35:17;;;;;;;0.10;0.10;;;;;;;;;;5048386;28;20049;-78
2023/05/08 01:37:48;;;;;;;0.10;0.10;;;;;;;;;;5029489;28;20668;-78
2023/05/08 01:40:18;;;;;;;0.10;0.10;;;;;;;;;;5049072;28;20060;-77
2023/05/08 01:42:56;;;;;;;0.10;0.10;;;;;;;;;;5045797;28;20060;-78
2023/05/08 01:45:29;;;;;;;0.10;0.10;;;;;;;;;;5046616;28;20492;-78
2023/05/08 01:48:19;;;;;;;0.17;0.17;;;;;;;;;;5046334;28;20100;-78
2023/05/08 01:50:46;;;;;;;0.10;0.10;;;;;;;;;;5019756;28;20038;-78
2023/05/08 01:55:49;;;;;;;0.10;0.10;;;;;;;;;;5267862;22;19930;-78
2023/05/08 01:58:15;;;;;;;0.10;0.10;;;;;;;;;;5016696;28;20050;-78
2023/05/08 02:00:43;;;;;;;0.10;0.10;;;;;;;;;;5034039;28;20112;-78
2023/05/08 02:03:10;;;;;;;0.10;0.10;;;;;;;;;;5041720;28;20054;-78
2023/05/08 02:05:37;;;;;;;0.10;0.10;;;;;;;;;;5018876;28;20050;-77
2023/05/08 02:08:04;;;;;;;0.10;0.10;;;;;;;;;;5026660;28;20057;-77
2023/05/08 02:10:31;;;;;;;0.10;0.10;;;;;;;;;;5029020;28;20895;-78
2023/05/08 02:12:58;;;;;;;0.10;0.10;;;;;;;;;;5027221;28;20409;-78
2023/05/08 02:15:26;;;;;;;0.10;0.10;;;;;;;;;;5025689;28;20046;-77
2023/05/08 02:17:53;;;;;;;0.10;0.10;;;;;;;;;;5028535;28;20049;-76
2023/05/08 02:20:20;;;;;;;0.10;0.10;;;;;;;;;;5028621;28;20058;-77
2023/05/08 02:22:49;;;;;;;0.10;0.10;;;;;;;;;;5029188;28;20133;-78
2023/05/08 02:25:15;;;;;;;0.10;0.10;;;;;;;;;;5026690;28;20077;-78
2023/05/08 02:27:44;;;;;;;0.13;0.13;;;;;;;;;;5012172;28;20058;-78
2023/05/08 02:30:15;;;;;;;0.10;0.10;;;;;;;;;;5012729;28;20100;-78
2023/05/08 02:32:43;;;;;;;0.10;0.10;;;;;;;;;;5029021;28;20054;-78
2023/05/08 02:35:12;;;;;;;0.10;0.10;;;;;;;;;;5025412;28;20068;-78
2023/05/08 02:37:41;;;;;;;0.10;0.10;;;;;;;;;;5028009;28;20045;-77
2023/05/08 02:40:08;;;;;;;0.52;0.32;;;;;;;;;;5010782;28;20053;-78
2023/05/08 02:42:35;;;;;;;0.20;0.20;;;;;;;;;;5029168;28;20279;-78
2023/05/08 02:45:02;;;;;;;0.52;0.40;;;;;;;;;;5009671;28;20614;-77
2023/05/08 02:47:33;;;;;;;0.10;0.10;;;;;;;;;;5007514;28;21480;-77
2023/05/08 02:50:05;;;;;;;0.10;0.10;;;;;;;;;;5024654;28;20054;-77
2023/05/08 02:52:36;;;;;;;0.10;0.10;;;;;;;;;;5025265;28;20054;-77
2023/05/08 02:55:21;;;;;;;0.20;0.20;;;;;;;;;;5021592;28;20149;-78
2023/05/08 02:58:17;;;;;;;0.45;0.40;;;;;;;;;;5029308;28;20133;-78
2023/05/08 03:00:43;;;;;;;0.10;0.10;;;;;;;;;;4998968;28;20531;-77
2023/05/08 03:03:23;;;;;;;0.10;0.10;;;;;;;;;;5006980;28;20077;-78
2023/05/08 03:05:52;;;;;;;0.10;0.10;;;;;;;;;;5007777;28;20057;-78
2023/05/08 03:08:22;;;;;;;0.10;0.10;;;;;;;;;;5027073;28;20058;-76
2023/05/08 03:10:51;;;;;;;0.17;0.13;;;;;;;;;;5025525;28;20046;-76
2023/05/08 03:13:18;;;;;;;0.10;0.10;;;;;;;;;;5008238;28;20057;-77
2023/05/08 03:15:48;;;;;;;0.10;0.10;;;;;;;;;;5008226;28;20050;-76
2023/05/08 03:18:19;;;;;;;0.10;0.10;;;;;;;;;;5026099;28;20069;-77
2023/05/08 03:20:48;;;;;;;0.10;0.10;;;;;;;;;;5025104;28;20281;-76
2023/05/08 03:23:15;;;;;;;0.10;0.10;;;;;;;;;;5025572;28;20049;-77
2023/05/08 03:25:42;;;;;;;0.17;0.17;;;;;;;;;;4990612;28;20080;-77
2023/05/08 03:28:09;;;;;;;0.10;0.10;;;;;;;;;;5006675;28;20054;-77
2023/05/08 03:30:36;;;;;;;0.10;0.10;;;;;;;;;;4988110;28;20092;-76
2023/05/08 03:33:03;;;;;;;0.10;0.10;;;;;;;;;;5005616;28;20050;-76
2023/05/08 03:35:30;;;;;;;0.15;0.15;;;;;;;;;;5020367;28;20064;-77
2023/05/08 03:37:57;;;;;;;0.10;0.10;;;;;;;;;;5025087;28;20492;-77
2023/05/08 03:40:24;;;;;;;0.10;0.10;;;;;;;;;;5023160;28;20890;-77
2023/05/08 03:42:51;;;;;;;0.10;0.10;;;;;;;;;;5024147;28;20089;-77
2023/05/08 03:45:18;;;;;;;0.00;0.00;;;;;;;;;;5021941;28;20058;-78
2023/05/08 03:47:45;;;;;;;0.10;0.10;;;;;;;;;;5024640;28;20057;-76
2023/05/08 03:50:12;;;;;;;0.10;0.10;;;;;;;;;;5024507;28;20564;-77
2023/05/08 03:52:38;;;;;;;0.10;0.10;;;;;;;;;;5024394;28;20057;-77
2023/05/08 03:55:05;;;;;;;0.10;0.10;;;;;;;;;;5021370;28;20054;-77
2023/05/08 03:57:34;;;;;;;0.10;0.10;;;;;;;;;;5020754;28;20056;-78
2023/05/08 04:00:18;;;;;;;0.10;0.10;;;;;;;;;;5011173;28;20054;-77
2023/05/08 04:03:03;;;;;;;0.10;0.10;;;;;;;;;;5025534;28;20140;-77
2023/05/08 04:05:41;;;;;;;0.32;0.30;;;;;;;;;;5019402;28;20072;-78
2023/05/08 04:08:23;;;;;;;0.10;0.10;;;;;;;;;;5005655;28;20054;-77
2023/05/08 04:10:56;;;;;;;0.10;0.10;;;;;;;;;;5025166;28;20520;-77
2023/05/08 04:13:26;;;;;;;0.10;0.10;;;;;;;;;;5027026;28;20946;-78
2023/05/08 04:15:59;;;;;;;0.10;0.10;;;;;;;;;;5022355;28;20065;-77
2023/05/08 04:18:28;;;;;;;0.10;0.10;;;;;;;;;;5025913;28;20105;-77
2023/05/08 04:20:55;;;;;;;0.10;0.10;;;;;;;;;;5027944;28;20618;-78
2023/05/08 04:23:22;;;;;;;0.10;0.10;;;;;;;;;;5026485;28;20123;-76
2023/05/08 04:25:50;;;;;;;0.10;0.10;;;;;;;;;;5013709;28;20050;-77
2023/05/08 04:28:17;;;;;;;0.10;0.10;;;;;;;;;;5023186;28;20116;-77
2023/05/08 04:30:43;;;;;;;0.28;0.28;;;;;;;;;;5025701;28;20606;-77
2023/05/08 04:33:10;;;;;;;0.15;0.15;;;;;;;;;;5007814;28;20177;-77
2023/05/08 04:35:37;;;;;;;0.10;0.10;;;;;;;;;;5024445;28;20112;-77
2023/05/08 04:38:03;;;;;;;0.10;0.10;;;;;;;;;;5012951;28;20788;-77
2023/05/08 04:40:29;;;;;;;0.10;0.10;;;;;;;;;;5005220;28;20057;-77
2023/05/08 04:42:56;;;;;;;0.10;0.10;;;;;;;;;;5011510;28;20989;-78
2023/05/08 04:45:22;;;;;;;0.10;0.10;;;;;;;;;;5027317;28;20050;-77
2023/05/08 04:47:49;;;;;;;0.20;0.20;;;;;;;;;;5021413;28;20077;-76
2023/05/08 04:50:15;;;;;;;0.10;0.10;;;;;;;;;;5025450;28;20054;-77
2023/05/08 04:52:41;;;;;;;0.10;0.10;;;;;;;;;;5026182;28;20160;-77
2023/05/08 04:55:08;;;;;;;0.10;0.10;;;;;;;;;;5024286;28;20146;-77
2023/05/08 04:57:35;;;;;;;0.10;0.10;;;;;;;;;;5022181;28;20506;-78
2023/05/08 05:00:02;;;;;;;0.10;0.10;;;;;;;;;;5025889;28;20897;-78
2023/05/08 05:02:28;;;;;;;0.10;0.10;;;;;;;;;;5027603;28;20350;-78
2023/05/08 05:04:57;;;;;;;0.10;0.10;;;;;;;;;;5012266;28;20531;-77
2023/05/08 05:07:24;;;;;;;0.10;0.10;;;;;;;;;;5007314;28;20047;-78
2023/05/08 05:09:50;;;;;;;0.10;0.10;;;;;;;;;;4989240;28;20154;-77
2023/05/08 05:12:16;;;;;;;0.10;0.10;;;;;;;;;;5009918;28;20078;-78
2023/05/08 05:14:43;;;;;;;0.10;0.10;;;;;;;;;;5022543;28;20058;-78
2023/05/08 05:17:09;;;;;;;0.13;0.13;;;;;;;;;;5023912;28;20140;-77
2023/05/08 05:19:35;;;;;;;0.10;0.10;;;;;;;;;;5023088;28;20068;-78
2023/05/08 05:22:06;;;;;;;0.10;0.10;;;;;;;;;;5026037;28;20720;-78
2023/05/08 05:24:35;;;;;;;0.10;0.10;;;;;;;;;;5006763;28;20080;-78
2023/05/08 05:27:01;;;;;;;0.17;0.17;;;;;;;;;;5028657;28;20109;-78
2023/05/08 05:29:28;;;;;;;0.10;0.10;;;;;;;;;;5019391;28;20058;-78
2023/05/08 05:31:54;;;;;;;0.45;0.40;;;;;;;;;;5022025;28;20053;-79
2023/05/08 05:34:20;;;;;;;0.30;0.30;;;;;;;;;;4995736;28;20625;-78
2023/05/08 05:36:47;;;;;;;0.10;0.10;;;;;;;;;;4990890;28;20666;-78
2023/05/08 05:39:13;;;;;;;0.10;0.10;;;;;;;;;;5019264;28;21876;-79
2023/05/08 05:41:43;;;;;;;0.35;0.35;;;;;;;;;;5010523;28;20097;-79
2023/05/08 05:44:10;;;;;;;0.13;0.13;;;;;;;;;;5023274;28;20116;-78
2023/05/08 05:46:36;;;;;;;0.10;0.10;;;;;;;;;;5013415;28;20117;-78
2023/05/08 05:49:02;;;;;;;0.20;0.20;;;;;;;;;;5030053;28;20053;-78
2023/05/08 05:51:29;;;;;;;0.10;0.10;;;;;;;;;;5022993;28;20189;-78
2023/05/08 05:53:56;;;;;;;0.30;0.30;;;;;;;;;;5014025;28;20066;-79
2023/05/08 05:56:22;;;;;;;0.10;0.10;;;;;;;;;;5014670;28;20501;-79
2023/05/08 05:58:48;;;;;;;0.10;0.10;;;;;;;;;;5008862;28;20906;-79
2023/05/08 06:01:15;;;;;;;0.10;0.10;;;;;;;;;;5022325;28;20141;-78
2023/05/08 06:03:42;;;;;;;0.10;0.10;;;;;;;;;;5026665;28;20054;-78
2023/05/08 06:06:09;;;;;;;0.10;0.10;;;;;;;;;;5018796;28;20085;-78
2023/05/08 06:08:35;;;;;;;0.65;0.38;;;;;;;;;;5025240;28;20088;-79
2023/05/08 06:11:02;;;;;;;0.10;0.10;;;;;;;;;;5022963;28;20053;-79
2023/05/08 06:13:28;;;;;;;0.38;0.38;;;;;;;;;;5010213;28;20579;-79
2023/05/08 06:15:55;;;;;;;0.38;0.38;;;;;;;;;;5028263;28;20062;-78
2023/05/08 06:18:22;;;;;;;0.28;0.28;;;;;;;;;;5029996;28;20066;-79
2023/05/08 06:20:48;;;;;;;0.10;0.10;;;;;;;;;;5027776;28;20064;-79
2023/05/08 06:23:15;;;;;;;0.20;0.20;;;;;;;;;;5029361;28;20133;-78
2023/05/08 06:25:41;;;;;;;0.10;0.10;;;;;;;;;;5023801;28;20897;-77
2023/05/08 06:28:07;;;;;;;0.22;0.20;;;;;;;;;;5032137;28;20081;-78
2023/05/08 06:30:34;;;;;;;3.60;0.40;;;;;;;;;;5024859;28;20052;-78
2023/05/08 06:33:00;;;;;;;0.30;0.30;;;;;;;;;;5010702;28;20132;-79
2023/05/08 06:35:27;;;;;;;0.57;0.57;;;;;;;;;;5029358;28;20496;-78
2023/05/08 06:37:53;;;;;;;0.10;0.10;;;;;;;;;;5018499;28;20579;-78
2023/05/08 06:40:20;;;;;;;0.20;0.20;;;;;;;;;;5022029;28;20141;-78
2023/05/08 06:42:47;;;;;;;0.20;0.20;;;;;;;;;;5016336;28;20044;-79
2023/05/08 06:45:13;;;;;;;0.20;0.20;;;;;;;;;;5016083;28;20058;-77
2023/05/08 06:47:40;;;;;;;0.88;0.40;;;;;;;;;;5026026;28;20054;-78
2023/05/08 06:50:06;;;;;;;0.20;0.20;;;;;;;;;;5026803;28;20301;-78
2023/05/08 06:52:33;;;;;;;0.30;0.28;;;;;;;;;;5020879;28;20089;-78
2023/05/08 06:54:59;;;;;;;0.63;0.47;;;;;;;;;;5004108;28;20058;-78
2023/05/08 06:57:28;;;;;;;0.20;0.20;;;;;;;;;;5012329;28;20133;-79
2023/05/08 06:59:55;;;;;;;0.63;0.57;;;;;;;;;;5023889;28;20065;-77
2023/05/08 07:02:21;;;;;;;0.20;0.20;;;;;;;;;;5027620;28;20050;-78
2023/05/08 07:04:48;;;;;;;0.50;0.50;;;;;;;;;;5000024;28;20599;-78
2023/05/08 07:07:14;;;;;;;0.20;0.20;;;;;;;;;;5022277;28;20177;-78
2023/05/08 07:09:41;;;;;;;0.20;0.20;;;;;;;;;;4998660;28;21375;-78
2023/05/08 07:12:08;;;;;;;0.45;0.40;;;;;;;;;;5004174;28;20046;-77
2023/05/08 07:14:34;;;;;;;2.05;0.50;;;;;;;;;;5019023;28;20053;-79
2023/05/08 07:17:06;;;;;;;0.38;0.32;;;;;;;;;;5027986;28;20060;-78
2023/05/08 07:19:36;;;;;;;0.68;0.55;;;;;;;;;;5012588;28;20137;-78
2023/05/08 07:22:03;;;;;;;1.75;0.65;;;;;;;;;;5027409;28;20080;-78
2023/05/08 07:24:30;;;;;;;0.20;0.20;;;;;;;;;;5028953;28;20057;-77
2023/05/08 07:26:58;;;;;;;0.10;0.10;;;;;;;;;;4998956;28;20081;-77
2023/05/08 07:29:25;;;;;;;0.20;0.20;;;;;;;;;;5023143;28;20054;-76
2023/05/08 07:31:52;;;;;;;1.55;0.85;;;;;;;;;;5022669;28;21503;-77
2023/05/08 07:34:18;;;;;;;0.52;0.47;;;;;;;;;;5007553;28;20077;-77
2023/05/08 07:36:45;;;;;;;0.47;0.40;;;;;;;;;;5015280;28;20061;-77
2023/05/08 07:39:11;;;;;;;0.50;0.43;;;;;;;;;;5023017;28;20054;-79
2023/05/08 07:41:39;;;;;;;1.08;0.80;;;;;;;;;;5019082;28;20050;-78
2023/05/08 07:44:06;;;;;;;1.05;0.70;;;;;;;;;;5024762;28;20068;-79
2023/05/08 07:46:33;;;;;;;0.28;0.28;;;;;;;;;;5023958;28;20060;-78
2023/05/08 07:48:59;;;;;;;0.17;0.17;;;;;;;;;;5027013;28;20061;-79
2023/05/08 07:51:26;;;;;;;0.70;0.40;;;;;;;;;;5009176;28;20054;-78
2023/05/08 07:53:53;;;;;;;1.33;0.38;;;;;;;;;;5018377;28;20149;-78
2023/05/08 07:56:21;;;;;;;0.10;0.10;;;;;;;;;;5007990;28;20555;-79
2023/05/08 07:58:48;;;;;;;0.63;0.57;;;;;;;;;;5018214;28;20091;-77
2023/05/08 08:01:16;;;;;;;3.83;1.27;;;;;;;;;;5027745;28;20519;-77
2023/05/08 08:03:46;;;;;;;0.63;0.60;;;;;;;;;;4993816;28;20140;-77
2023/05/08 08:06:13;;;;;;;0.30;0.30;;;;;;;;;;5019148;28;20058;-77
2023/05/08 08:08:39;;;;;;;0.20;0.20;;;;;;;;;;5010218;28;20284;-78
2023/05/08 08:11:06;;;;;;;0.30;0.30;;;;;;;;;;5013524;28;20053;-79
2023/05/08 08:13:32;;;;;;;0.60;0.43;;;;;;;;;;5019964;28;20082;-78
2023/05/08 08:15:59;;;;;;;0.22;0.22;;;;;;;;;;5000250;28;20054;-77
2023/05/08 08:18:25;;;;;;;1.60;1.00;;;;;;;;;;5022517;28;20054;-78
2023/05/08 08:20:52;;;;;;;0.47;0.47;;;;;;;;;;5025695;28;20050;-78
2023/05/08 08:23:18;;;;;;;0.10;0.10;;;;;;;;;;5025354;28;20092;-77
2023/05/08 08:25:44;;;;;;;0.52;0.50;;;;;;;;;;5024418;28;20077;-77
2023/05/08 08:28:11;;;;;;;0.75;0.47;;;;;;;;;;5027493;28;20050;-78
2023/05/08 08:30:37;;;;;;;0.60;0.43;;;;;;;;;;5013421;28;20664;-78
2023/05/08 08:33:06;;;;;;;0.55;0.55;;;;;;;;;;4995747;28;20058;-78
2023/05/08 08:35:33;;;;;;;0.70;0.55;;;;;;;;;;5021252;28;20132;-78
2023/05/08 08:38:02;;;;;;;0.35;0.30;;;;;;;;;;5012031;28;20134;-78
2023/05/08 08:40:28;;;;;;;0.30;0.25;;;;;;;;;;5009612;28;20073;-79
2023/05/08 08:42:54;;;;;;;0.47;0.25;;;;;;;;;;5009581;28;20513;-79
2023/05/08 08:45:21;;;;;;;0.45;0.32;;;;;;;;;;4998607;28;20530;-79
2023/05/08 08:47:49;;;;;;;0.20;0.20;;;;;;;;;;5023184;28;20058;-79
2023/05/08 08:50:18;;;;;;;0.20;0.20;;;;;;;;;;5010429;28;20081;-78
2023/05/08 08:53:03;;;;;;;0.30;0.30;;;;;;;;;;5024750;28;20899;-78
2023/05/08 08:58:21;;;;;;;0.45;0.32;;;;;;;;;;5561995;22;20058;-79
2023/05/08 09:00:48;;;;;;;0.28;0.28;;;;;;;;;;4994558;28;20203;-79
2023/05/08 09:03:15;;;;;;;1.23;0.73;;;;;;;;;;5013111;28;20061;-80
2023/05/08 09:05:43;;;;;;;0.10;0.10;;;;;;;;;;5000776;28;20133;-79
2023/05/08 09:08:09;;;;;;;0.30;0.30;;;;;;;;;;5001736;28;20148;-78
2023/05/08 09:10:36;;;;;;;0.28;0.28;;;;;;;;;;5009085;28;20052;-79
2023/05/08 09:13:03;;;;;;;0.45;0.30;;;;;;;;;;5019263;28;20062;-80
2023/05/08 09:15:33;;;;;;;0.20;0.20;;;;;;;;;;5018491;28;20257;-80
2023/05/08 09:18:02;;;;;;;0.57;0.40;;;;;;;;;;5005120;28;20145;-78
2023/05/08 09:20:29;;;;;;;0.63;0.40;;;;;;;;;;5004495;28;20112;-80
2023/05/08 09:22:56;;;;;;;0.45;0.45;;;;;;;;;;5019406;28;20050;-80
2023/05/08 09:25:22;;;;;;;1.08;0.63;;;;;;;;;;5020223;28;20058;-81
2023/05/08 09:27:49;;;;;;;0.25;0.25;;;;;;;;;;5017833;28;20066;-80
2023/05/08 09:30:15;;;;;;;1.27;0.88;;;;;;;;;;5013844;28;20105;-78
2023/05/08 09:32:42;;;;;;;8.70;0.80;;;;;;;;;;4987528;28;21088;-79
2023/05/08 09:35:09;;;;;;;0.38;0.30;;;;;;;;;;5004171;28;20149;-79
2023/05/08 09:37:41;;;;;;;0.20;0.20;;;;;;;;;;5003065;28;20053;-78
2023/05/08 09:40:21;;;;;;;0.75;0.45;;;;;;;;;;5001374;28;20092;-79
2023/05/08 09:42:48;;;;;;;0.32;0.30;;;;;;;;;;5006071;28;20907;-79
2023/05/08 09:45:25;;;;;;;0.43;0.43;;;;;;;;;;5004388;28;20180;-78
2023/05/08 09:47:51;;;;;;;0.85;0.40;;;;;;;;;;5010246;28;20062;-78
2023/05/08 09:50:18;;;;;;;0.20;0.20;;;;;;;;;;5008763;28;20046;-77
2023/05/08 09:52:45;;;;;;;0.85;0.50;;;;;;;;;;5001257;28;20054;-78
2023/05/08 09:55:12;;;;;;;0.98;0.65;;;;;;;;;;4973344;28;20058;-76
2023/05/08 09:57:39;;;;;;;2.38;0.70;;;;;;;;;;5000656;28;20109;-77
2023/05/08 10:00:09;;;;;;;0.50;0.30;;;;;;;;;;4998488;28;20566;-77
2023/05/08 10:02:37;;;;;;;1.00;0.52;;;;;;;;;;4997798;28;20129;-77
2023/05/08 10:05:20;;;;;;;0.45;0.32;;;;;;;;;;5002631;28;20073;-77
2023/05/08 10:07:47;;;;;;;0.52;0.35;;;;;;;;;;4990203;28;20061;-77
2023/05/08 10:10:13;;;;;;;0.30;0.30;;;;;;;;;;4999375;28;20056;-77
2023/05/08 10:12:41;;;;;;;0.20;0.20;;;;;;;;;;5005034;28;20855;-78
2023/05/08 10:15:07;;;;;;;0.45;0.30;;;;;;;;;;5002939;28;20509;-77
2023/05/08 10:17:40;;;;;;;1.95;0.75;;;;;;;;;;5002293;28;20181;-76
2023/05/08 10:20:08;;;;;;;0.40;0.40;;;;;;;;;;4985206;28;20088;-76
2023/05/08 10:22:39;;;;;;;0.45;0.35;;;;;;;;;;5004458;28;20970;-78
2023/05/08 10:25:09;;;;;;;0.57;0.35;;;;;;;;;;5003044;28;20063;-79
2023/05/08 10:27:58;;;;;;;1.45;0.50;;;;;;;;;;5003966;28;20530;-77
2023/05/08 10:30:25;;;;;;;1.30;0.55;;;;;;;;;;5004557;28;20058;-77
2023/05/08 10:32:57;;;;;;;0.45;0.32;;;;;;;;;;5004088;28;20534;-77
2023/05/08 10:35:24;;;;;;;0.90;0.63;;;;;;;;;;5002927;28;20062;-77
2023/05/08 10:37:50;;;;;;;0.63;0.63;;;;;;;;;;5006199;28;20077;-79
2023/05/08 10:40:20;;;;;;;0.88;0.55;;;;;;;;;;5009983;28;20054;-81
2023/05/08 10:42:47;;;;;;;0.30;0.30;;;;;;;;;;5014973;28;20055;-80
2023/05/08 10:45:13;;;;;;;1.23;0.60;;;;;;;;;;5015390;28;20058;-81
2023/05/08 10:47:46;;;;;;;1.02;0.75;;;;;;;;;;5014373;28;20081;-81
2023/05/08 10:50:48;;;;;;;0.25;0.25;;;;;;;;;;5013169;28;20050;-81
2023/05/08 10:53:16;;;;;;;1.95;1.00;;;;;;;;;;4950947;28;20142;-81
2023/05/08 10:55:44;;;;;;;0.63;0.50;;;;;;;;;;4995422;28;20082;-78
2023/05/08 10:58:13;;;;;;;1.48;0.88;;;;;;;;;;4997729;28;20590;-79
2023/05/08 11:00:52;;;;;;;1.35;0.85;;;;;;;;;;5005217;28;20069;-79
2023/05/08 11:03:20;;;;;;;2.90;1.23;;;;;;;;;;5000734;28;20047;-78
2023/05/08 11:05:58;;;;;;;3.47;0.82;;;;;;;;;;5000217;28;20065;-80
2023/05/08 11:08:26;;;;;;;1.83;0.80;;;;;;;;;;5007401;28;20137;-80
2023/05/08 11:10:58;;;;;;;0.73;0.52;;;;;;;;;;5006268;28;20058;-79
2023/05/08 11:13:30;;;;;;;1.08;0.70;;;;;;;;;;5006204;28;20054;-79
2023/05/08 11:15:56;;;;;;;1.13;0.63;;;;;;;;;;5004785;28;20949;-78
2023/05/08 11:18:23;;;;;;;1.23;0.55;;;;;;;;;;5004406;28;20060;-78
2023/05/08 11:20:53;;;;;;;;;;;;;;;;;;5005180;28;20054;-78
2023/05/08 11:23:29;;;;;;;1.20;0.85;;;;;;;;;;5006455;28;45789;-80
2023/05/08 11:26:00;;;;;;;1.60;1.50;;;;;;;;;;5012577;28;20066;-79
2023/05/08 11:28:29;;;;;;;1.15;0.63;;;;;;;;;;4989985;28;20055;-76
2023/05/08 11:31:05;;;;;;;0.50;0.45;;;;;;;;;;5004488;28;20620;-80
2023/05/08 11:33:36;;;;;;;3.97;0.93;;;;;;;;;;5003964;28;20050;-79
2023/05/08 11:36:05;;;;;;;0.77;0.70;;;;;;;;;;5003964;28;20058;-79
2023/05/08 11:38:34;;;;;;;1.52;0.80;;;;;;;;;;5005583;28;20536;-80
2023/05/08 11:41:02;;;;;;;1.55;0.90;;;;;;;;;;5006100;28;20180;-80
2023/05/08 11:43:32;;;;;;;1.38;1.00;;;;;;;;;;4996557;28;20058;-79
2023/05/08 11:46:07;;;;;;;1.27;0.80;;;;;;;;;;5004552;28;20069;-78
2023/05/08 11:48:34;;;;;;;0.70;0.52;;;;;;;;;;5003892;28;20121;-77
2023/05/08 11:51:01;;;;;;;0.98;0.63;;;;;;;;;;5003268;28;20135;-78
2023/05/08 11:53:29;;;;;;;0.40;0.40;;;;;;;;;;5001666;28;20181;-77
2023/05/08 11:55:56;;;;;;;1.30;0.70;;;;;;;;;;5001482;28;20468;-77
2023/05/08 11:58:22;;;;;;;1.25;0.82;;;;;;;;;;5003300;28;20050;-76
2023/05/08 12:00:49;;;;;;;0.80;0.77;;;;;;;;;;4996846;28;20086;-77
2023/05/08 12:03:16;;;;;;;1.65;0.65;;;;;;;;;;4993806;28;20674;-78
2023/05/08 12:05:43;;;;;;;0.32;0.30;;;;;;;;;;4995116;28;20058;-76
2023/05/08 12:08:10;;;;;;;0.88;0.52;;;;;;;;;;4992581;28;20050;-77
2023/05/08 12:10:46;;;;;;;1.60;0.70;;;;;;;;;;4998275;28;20535;-78
2023/05/08 12:13:16;;;;;;;0.95;0.82;;;;;;;;;;5001753;28;20058;-77
2023/05/08 12:15:43;;;;;;;1.33;0.73;;;;;;;;;;5004208;28;20505;-77
2023/05/08 12:18:10;;;;;;;0.28;0.28;;;;;;;;;;5000864;28;20103;-78
2023/05/08 12:20:36;;;;;;;0.40;0.40;;;;;;;;;;5003116;28;20591;-77
2023/05/08 12:23:03;;;;;;;2.45;0.90;;;;;;;;;;4999885;28;20058;-78
2023/05/08 12:25:29;;;;;;;3.22;0.82;;;;;;;;;;4993268;28;20508;-77
2023/05/08 12:27:57;;;;;;;1.05;0.85;;;;;;;;;;4994966;28;20054;-76
2023/05/08 12:30:23;;;;;;;1.65;1.08;;;;;;;;;;5003540;28;20129;-76
2023/05/08 12:32:50;;;;;;;1.17;0.75;;;;;;;;;;5005724;28;20555;-77
2023/05/08 12:35:16;;;;;;;0.85;0.70;;;;;;;;;;4999446;28;20092;-76
2023/05/08 12:37:43;;;;;;;0.80;0.60;;;;;;;;;;5007679;28;20163;-78
2023/05/08 12:40:23;;;;;;;0.20;0.20;;;;;;;;;;5006833;28;20496;-76
2023/05/08 12:42:50;;;;;;;0.67;0.67;;;;;;;;;;5007386;28;20671;-78
2023/05/08 12:45:26;;;;;;;0.70;0.60;;;;;;;;;;5005465;28;20280;-77
2023/05/08 12:47:57;;;;;;;0.20;0.20;;;;;;;;;;5006548;28;20058;-78
2023/05/08 12:50:24;;;;;;;;;;;;;;;;;;5008034;28;20074;-78
2023/05/08 12:52:51;;;;;;;0.52;0.40;;;;;;;;;;5004980;28;45693;-77
2023/05/08 12:55:27;;;;;;;1.27;0.88;;;;;;;;;;5003709;28;20050;-79
2023/05/08 12:58:06;;;;;;;0.63;0.52;;;;;;;;;;5005434;28;20572;-77
2023/05/08 13:00:37;;;;;;;0.68;0.40;;;;;;;;;;5006710;28;20169;-77
2023/05/08 13:03:04;;;;;;;0.75;0.75;;;;;;;;;;5005885;28;20061;-77
2023/05/08 13:05:30;;;;;;;0.90;0.40;;;;;;;;;;5005958;28;20050;-76
2023/05/08 13:08:04;;;;;;;0.73;0.30;;;;;;;;;;5005747;28;20484;-76
2023/05/08 13:10:44;;;;;;;0.52;0.52;;;;;;;;;;5006921;28;20059;-77
2023/05/08 13:13:11;;;;;;;0.85;0.70;;;;;;;;;;5006753;28;20164;-77
2023/05/08 13:18:12;;;;;;;0.40;0.40;;;;;;;;;;5065459;22;20066;-77
2023/05/08 13:20:39;;;;;;;2.20;0.88;;;;;;;;;;5021362;28;20195;-77
2023/05/08 13:23:05;;;;;;;1.25;0.68;;;;;;;;;;5017933;28;20081;-77
2023/05/08 13:25:32;;;;;;;0.32;0.30;;;;;;;;;;5020312;28;20114;-77
2023/05/08 13:27:59;;;;;;;1.55;0.65;;;;;;;;;;5025182;28;20054;-77
2023/05/08 13:30:25;;;;;;;0.70;0.40;;;;;;;;;;5028356;28;20050;-77
2023/05/08 13:32:52;;;;;;;0.75;0.50;;;;;;;;;;5028019;28;20054;-77
2023/05/08 13:35:19;;;;;;;0.20;0.20;;;;;;;;;;5027306;28;20060;-77
2023/05/08 13:37:46;;;;;;;0.40;0.40;;;;;;;;;;5023243;28;20058;-78
2023/05/08 13:40:15;;;;;;;0.20;0.20;;;;;;;;;;5018336;28;20088;-77
2023/05/08 13:42:41;;;;;;;0.20;0.20;;;;;;;;;;5017828;28;20057;-77
2023/05/08 13:45:14;;;;;;;0.47;0.43;;;;;;;;;;5016848;28;20140;-81
2023/05/08 13:47:41;;;;;;;1.00;0.80;;;;;;;;;;5023978;28;20054;-77
2023/05/08 13:50:09;;;;;;;2.05;0.60;;;;;;;;;;5020033;28;20057;-77
2023/05/08 13:52:37;;;;;;;0.43;0.43;;;;;;;;;;5025374;28;20133;-77
2023/05/08 14:01:02;;;;;;;2.50;0.60;;;;;;;;;;4975413;28;20547;-77
2023/05/08 14:03:47;;;;;;;0.25;0.25;;;;;;;;;;4979648;28;20062;-77
2023/05/08 14:06:14;;;;;;;1.65;0.50;;;;;;;;;;4977267;28;20146;-77
2023/05/08 14:08:40;;;;;;;1.30;0.63;;;;;;;;;;4982473;28;20062;-76
2023/05/08 14:11:13;;;;;;;1.77;0.70;;;;;;;;;;4989403;28;20074;-77
2023/05/08 14:13:39;;;;;;;0.88;0.80;;;;;;;;;;4985755;28;20058;-77
2023/05/08 14:16:10;;;;;;;1.40;1.00;;;;;;;;;;4969691;28;20095;-77
2023/05/08 14:18:37;;;;;;;0.75;0.40;;;;;;;;;;4988467;28;20098;-77
2023/05/08 14:21:03;;;;;;;0.38;0.38;;;;;;;;;;4986161;28;20043;-78
2023/05/08 14:23:29;;;;;;;0.68;0.30;;;;;;;;;;4988280;28;20078;-77
2023/05/08 14:25:56;;;;;;;1.27;0.73;;;;;;;;;;4989408;28;20153;-78
2023/05/08 14:28:22;;;;;;;2.00;0.88;;;;;;;;;;4986656;28;20066;-77
2023/05/08 14:30:49;;;;;;;1.38;0.63;;;;;;;;;;4987938;28;20054;-77
2023/05/08 14:33:15;;;;;;;0.32;0.32;;;;;;;;;;4982914;28;20462;-77
2023/05/08 14:35:47;;;;;;;4.38;1.20;;;;;;;;;;4989023;28;20773;-77
2023/05/08 14:38:13;;;;;;;0.55;0.38;;;;;;;;;;4988094;28;20953;-78
2023/05/08 14:40:40;;;;;;;0.75;0.68;;;;;;;;;;4983442;28;20055;-77
2023/05/08 14:43:06;;;;;;;0.60;0.60;;;;;;;;;;4986698;28;20054;-78
2023/05/08 14:45:32;;;;;;;0.68;0.55;;;;;;;;;;4968239;28;20054;-76
2023/05/08 14:47:59;;;;;;;0.60;0.50;;;;;;;;;;4978029;28;20106;-76
2023/05/08 14:50:26;;;;;;;1.48;0.77;;;;;;;;;;4983768;28;20077;-76
2023/05/08 14:52:53;;;;;;;0.75;0.75;;;;;;;;;;4968938;28;20063;-76
2023/05/08 14:55:19;;;;;;;0.28;0.28;;;;;;;;;;4971768;28;20059;-77
2023/05/08 14:57:46;;;;;;;0.45;0.30;;;;;;;;;;4982036;28;20970;-77
2023/05/08 15:00:13;;;;;;;2.67;0.90;;;;;;;;;;4977924;28;20054;-76
2023/05/08 15:02:40;;;;;;;0.82;0.60;;;;;;;;;;4965811;28;20062;-77
2023/05/08 15:05:10;;;;;;;0.40;0.40;;;;;;;;;;4984524;28;20153;-77